Time;durP1;ratioP1;P1;durP2;ratioP2;P2;SDS_P1;SDS_P2;PMS_P1;PMS_P2;Temp;Humidity;BMP_temperature;BMP_pressure;BME280_temperature;BME280_humidity;BME280_pressure;Samples;Min_cycle;Max_cycle;Signal;HPM_P1;HPM_P2
2023/01/10 00:01:40;;;;;;;3.63;2.78;;;;;;;5.80;71.74;98174.59;5109504;28;20040;-72
2023/01/10 00:04:07;;;;;;;4.70;2.80;;;;;;;5.73;71.59;98162.72;5109546;28;20051;-72
2023/01/10 00:06:34;;;;;;;3.03;2.47;;;;;;;5.80;71.44;98174.59;5109139;28;20058;-72
2023/01/10 00:09:01;;;;;;;4.40;2.90;;;;;;;5.77;71.40;98178.25;5109327;28;20036;-72
2023/01/10 00:14:14;;;;;;;4.10;2.53;;;;;;;5.79;71.56;98183.41;5109424;28;20060;-72
2023/01/10 00:16:41;;;;;;;3.42;2.30;;;;;;;5.78;71.14;98187.81;5108066;28;20048;-72
2023/01/10 00:19:09;;;;;;;3.88;2.83;;;;;;;5.81;71.04;98193.84;5108914;28;20055;-71
2023/01/10 00:21:36;;;;;;;4.35;2.70;;;;;;;5.81;70.85;98197.31;5109205;28;20054;-72
2023/01/10 00:27:25;;;;;;;4.50;2.58;;;;;;;5.40;70.75;98139.94;5108845;28;20042;-71
2023/01/10 00:29:54;;;;;;;4.13;2.53;;;;;;;5.54;70.67;98157.59;5091202;28;20047;-72
2023/01/10 00:32:23;;;;;;;3.20;2.33;;;;;;;5.77;70.58;98201.06;5107885;28;20048;-72
2023/01/10 00:34:50;;;;;;;4.82;2.65;;;;;;;5.77;70.67;98201.06;5108181;28;20048;-72
2023/01/10 00:37:16;;;;;;;4.25;2.38;;;;;;;5.78;70.72;98197.50;5108758;28;20039;-71
2023/01/10 00:39:43;;;;;;;5.10;3.20;;;;;;;5.58;70.55;98176.69;5108628;28;20036;-71
2023/01/10 00:44:57;;;;;;;4.28;2.80;;;;;;;5.75;70.54;98221.31;5107649;28;20048;-72
2023/01/10 00:47:24;;;;;;;4.75;2.53;;;;;;;5.38;70.44;98154.09;5108509;28;20048;-72
2023/01/10 00:49:51;;;;;;;4.45;2.72;;;;;;;5.77;70.29;98228.19;5107526;28;20314;-72
2023/01/10 00:52:17;;;;;;;5.20;3.20;;;;;;;4.14;70.02;97950.56;5108665;28;20294;-71
2023/01/10 00:54:44;;;;;;;7.80;3.17;;;;;;;5.80;70.20;98236.84;5108395;28;20067;-71
2023/01/10 00:57:11;;;;;;;3.75;2.80;;;;;;;5.76;70.34;98231.75;5108437;28;20298;-72
2023/01/10 00:59:38;;;;;;;4.20;2.40;;;;;;;5.60;70.27;98209.00;5107457;28;20058;-72
2023/01/10 01:02:06;;;;;;;3.75;2.50;;;;;;;5.78;70.31;98248.28;5124194;28;20043;-72
2023/01/10 01:04:34;;;;;;;4.35;2.78;;;;;;;5.76;70.30;98250.16;5107494;28;20050;-71
2023/01/10 01:07:01;;;;;;;3.75;2.40;;;;;;;5.74;70.45;98252.03;5108271;28;20048;-71
2023/01/10 01:09:28;;;;;;;4.72;2.35;;;;;;;5.61;70.40;98237.81;5107514;28;20050;-71
2023/01/10 01:11:55;;;;;;;3.88;2.47;;;;;;;5.76;70.48;98272.97;5108344;28;20273;-71
2023/01/10 01:14:22;;;;;;;3.38;2.60;;;;;;;5.59;70.91;98246.72;5107075;28;20036;-71
2023/01/10 01:16:49;;;;;;;3.17;2.70;;;;;;;5.77;70.61;98279.94;5108002;28;20067;-71
2023/01/10 01:19:18;;;;;;;3.42;2.63;;;;;;;5.77;70.29;98280.78;5107870;28;20309;-71
2023/01/10 01:21:44;;;;;;;4.25;2.70;;;;;;;5.76;70.61;98284.34;5107292;28;20044;-71
2023/01/10 01:24:11;;;;;;;3.28;2.60;;;;;;;5.75;70.68;98289.69;5090198;28;20299;-71
2023/01/10 01:26:40;;;;;;;4.22;2.60;;;;;;;5.75;70.93;98287.03;5107490;28;20081;-71
2023/01/10 01:29:07;;;;;;;3.58;2.60;;;;;;;5.74;71.08;98293.22;5106889;28;20077;-72
2023/01/10 01:31:34;;;;;;;3.83;2.78;;;;;;;5.72;71.27;98297.72;5107657;28;20103;-71
2023/01/10 01:34:01;;;;;;;6.07;3.13;;;;;;;5.72;71.24;98292.47;5106693;28;20032;-71
2023/01/10 01:36:29;;;;;;;5.13;2.63;;;;;;;5.72;71.25;98298.56;5106711;28;20036;-71
2023/01/10 01:38:56;;;;;;;4.82;2.95;;;;;;;5.71;71.29;98296.03;5107760;28;20292;-71
2023/01/10 01:44:14;;;;;;;5.83;3.60;;;;;;;5.47;71.50;98258.72;5106833;28;20040;-71
2023/01/10 01:46:43;;;;;;;5.60;2.92;;;;;;;5.70;71.64;98299.59;5107370;28;20080;-71
2023/01/10 01:49:16;;;;;;;4.70;3.10;;;;;;;5.69;71.62;98293.47;5106922;28;20035;-71
2023/01/10 01:51:47;;;;;;;3.25;2.30;;;;;;;5.70;71.83;98299.59;5107475;28;20287;-71
2023/01/10 01:54:15;;;;;;;4.03;2.72;;;;;;;5.70;71.74;98307.47;5107137;28;20036;-71
2023/01/10 01:56:47;;;;;;;3.92;3.03;;;;;;;5.68;71.80;98309.31;5106267;28;20047;-71
2023/01/10 01:59:17;;;;;;;3.58;2.60;;;;;;;5.67;71.90;98313.72;5107105;28;20050;-71
2023/01/10 02:01:47;;;;;;;3.28;2.50;;;;;;;5.68;71.72;98310.19;5107604;28;20047;-71
2023/01/10 02:04:20;;;;;;;4.05;2.53;;;;;;;5.69;71.64;98311.88;5089887;28;20044;-71
2023/01/10 02:06:51;;;;;;;3.70;2.40;;;;;;;5.67;71.64;98313.72;5106905;28;20036;-71
2023/01/10 02:09:23;;;;;;;5.00;2.70;;;;;;;5.38;71.50;98273.19;5106920;28;20180;-71
2023/01/10 02:11:50;;;;;;;4.32;2.90;;;;;;;5.47;71.41;98281.53;5107442;28;20050;-71
2023/01/10 02:14:19;;;;;;;4.82;2.50;;;;;;;5.63;71.18;98313.97;5105068;28;20036;-71
2023/01/10 02:16:46;;;;;;;3.95;3.10;;;;;;;5.26;71.12;98251.94;5106774;28;20048;-71
2023/01/10 02:19:23;;;;;;;4.75;2.65;;;;;;;5.67;71.12;98321.63;5106719;28;20036;-71
2023/01/10 02:22:15;;;;;;;4.03;2.83;;;;;;;5.67;71.05;98332.13;5105772;28;20043;-71
2023/01/10 02:25:05;;;;;;;4.57;2.80;;;;;;;5.66;71.06;98338.31;5105214;28;20113;-71
2023/01/10 02:27:48;;;;;;;4.07;2.53;;;;;;;5.55;71.21;98319.63;5105646;28;20044;-71
2023/01/10 02:30:47;;;;;;;3.13;2.22;;;;;;;5.38;70.72;98294.22;5105891;28;20082;-71
2023/01/10 02:33:22;;;;;;;2.67;2.00;;;;;;;5.64;71.11;98344.59;5105528;28;20036;-71
2023/01/10 02:36:00;;;;;;;5.13;2.80;;;;;;;5.43;71.21;98305.34;5106871;28;20040;-72
2023/01/10 02:38:37;;;;;;;5.30;2.30;;;;;;;5.08;70.90;98246.69;5105377;28;20307;-72
2023/01/10 02:41:10;;;;;;;5.05;2.40;;;;;;;5.44;71.16;98317.53;5106135;28;20044;-71
2023/01/10 02:43:43;;;;;;;4.68;2.20;;;;;;;5.09;70.95;98282.53;5106529;28;20251;-71
2023/01/10 02:46:15;;;;;;;2.97;2.28;;;;;;;5.65;71.13;98346.28;5106229;28;20032;-72
2023/01/10 02:48:43;;;;;;;3.17;2.40;;;;;;;5.03;71.02;98251.34;5105349;28;20299;-72
2023/01/10 02:51:17;;;;;;;4.60;2.88;;;;;;;5.65;70.60;98364.69;5106055;28;20036;-71
2023/01/10 02:53:48;;;;;;;3.47;2.30;;;;;;;5.65;71.11;98354.19;5106043;28;20111;-71
2023/01/10 02:56:48;;;;;;;3.60;2.33;;;;;;;5.65;70.27;98362.06;5088774;28;20191;-71
2023/01/10 02:59:59;;;;;;;3.45;2.30;;;;;;;5.63;70.13;98363.91;5105146;28;20299;-71
2023/01/10 03:02:38;;;;;;;3.20;2.50;;;;;;;5.61;70.59;98363.16;5044630;28;20212;-71
2023/01/10 03:05:17;;;;;;;2.80;2.20;;;;;;;5.62;70.50;98370.94;5101269;28;20044;-70
2023/01/10 03:07:52;;;;;;;3.92;2.40;;;;;;;5.63;70.76;98366.53;5105166;28;20111;-70
2023/01/10 03:10:26;;;;;;;3.40;2.20;;;;;;;5.43;70.73;98342.13;5105804;28;20047;-71
2023/01/10 03:12:58;;;;;;;4.88;2.85;;;;;;;5.37;70.86;98323.19;5105168;28;20036;-71
2023/01/10 03:15:30;;;;;;;3.00;2.15;;;;;;;5.63;70.42;98370.03;5105011;28;20043;-71
2023/01/10 03:18:02;;;;;;;3.20;2.33;;;;;;;5.65;70.70;98388.34;5106304;28;20054;-71
2023/01/10 03:20:34;;;;;;;4.68;2.33;;;;;;;5.63;71.03;98379.69;5106010;28;20302;-72
2023/01/10 03:23:05;;;;;;;3.35;2.47;;;;;;;5.59;71.19;98386.88;5104814;28;20210;-72
2023/01/10 03:25:36;;;;;;;2.92;2.10;;;;;;;5.51;71.10;98378.53;5105488;28;20039;-71
2023/01/10 03:28:07;;;;;;;3.55;2.25;;;;;;;5.56;71.33;98387.03;5104442;28;20058;-72
2023/01/10 03:30:43;;;;;;;3.17;2.58;;;;;;;5.57;71.27;98404.50;5106183;28;20306;-72
2023/01/10 03:33:13;;;;;;;2.95;2.20;;;;;;;5.32;71.62;98359.34;5104050;28;20134;-72
2023/01/10 03:35:56;;;;;;;5.30;2.58;;;;;;;5.57;71.56;98406.28;5104687;28;20296;-71
2023/01/10 03:38:30;;;;;;;3.13;2.28;;;;;;;5.54;71.71;98403.81;5104669;28;20248;-71
2023/01/10 03:41:03;;;;;;;4.00;2.07;;;;;;;5.08;71.59;98338.63;5105484;28;20059;-72
2023/01/10 03:46:31;;;;;;;2.60;2.07;;;;;;;5.53;71.75;98425.75;5104646;28;20040;-72
2023/01/10 03:48:59;;;;;;;3.13;2.20;;;;;;;5.54;71.80;98428.31;5087890;28;20086;-71
2023/01/10 03:51:28;;;;;;;4.65;2.20;;;;;;;5.53;71.88;98437.13;5104668;28;20040;-73
2023/01/10 03:53:59;;;;;;;3.10;2.20;;;;;;;5.54;71.91;98443.22;5105398;28;20111;-72
2023/01/10 03:56:26;;;;;;;2.65;2.05;;;;;;;4.77;71.87;98320.84;5105473;28;20052;-72
2023/01/10 03:58:53;;;;;;;3.38;2.10;;;;;;;5.50;72.23;98442.53;5105646;28;20044;-72
2023/01/10 04:01:20;;;;;;;4.10;2.25;;;;;;;5.37;72.28;98426.50;5104102;28;20196;-71
2023/01/10 04:03:47;;;;;;;4.03;2.47;;;;;;;5.51;72.41;98451.25;5121489;28;20047;-72
2023/01/10 04:06:16;;;;;;;3.85;2.35;;;;;;;5.51;72.48;98457.38;5105317;28;20103;-71
2023/01/10 04:08:44;;;;;;;2.85;2.03;;;;;;;5.32;72.54;98438.16;5105482;28;20040;-71
2023/01/10 04:11:11;;;;;;;2.92;2.15;;;;;;;5.13;72.70;98411.94;5104443;28;20040;-71
2023/01/10 04:13:40;;;;;;;3.97;2.40;;;;;;;5.43;72.58;98472.66;5105147;28;20040;-71
2023/01/10 04:16:08;;;;;;;4.05;2.45;;;;;;;5.43;72.86;98476.13;5104592;28;20044;-72
2023/01/10 04:18:34;;;;;;;3.55;2.10;;;;;;;5.48;72.96;98482.94;5104393;28;20056;-72
2023/01/10 04:21:01;;;;;;;3.25;2.10;;;;;;;5.49;72.96;98482.88;5105123;28;20039;-72
2023/01/10 04:23:28;;;;;;;2.70;2.13;;;;;;;5.49;72.97;98489.91;5104282;28;20039;-72
2023/01/10 04:25:56;;;;;;;4.18;2.35;;;;;;;5.48;73.03;98489.06;5105334;28;20044;-72
2023/01/10 04:28:23;;;;;;;3.05;2.30;;;;;;;5.48;73.15;98499.56;5087557;28;20040;-72
2023/01/10 04:30:50;;;;;;;3.10;2.55;;;;;;;5.06;73.22;98450.78;5105619;28;20040;-72
2023/01/10 04:33:17;;;;;;;2.92;2.28;;;;;;;5.21;73.40;98457.06;5105523;28;20059;-72
2023/01/10 04:35:48;;;;;;;2.92;2.33;;;;;;;4.93;73.42;98433.03;5104401;28;20055;-72
2023/01/10 04:38:15;;;;;;;3.65;2.53;;;;;;;5.43;73.63;98512.09;5105952;28;20043;-72
2023/01/10 04:40:42;;;;;;;8.07;5.32;;;;;;;5.43;73.76;98512.09;5108769;28;20059;-73
2023/01/10 04:43:11;;;;;;;9.35;5.70;;;;;;;5.42;74.16;98507.75;5107726;28;20321;-71
2023/01/10 04:45:38;;;;;;;5.97;3.60;;;;;;;5.45;74.09;98513.72;5108781;28;20057;-72
2023/01/10 04:48:05;;;;;;;3.58;3.17;;;;;;;5.45;73.95;98521.59;5108678;28;20036;-71
2023/01/10 04:50:32;;;;;;;4.28;3.63;;;;;;;5.47;73.64;98523.28;5107964;28;20075;-72
2023/01/10 04:53:01;;;;;;;3.65;2.53;;;;;;;5.47;73.91;98532.03;5108627;28;20043;-73
2023/01/10 04:55:28;;;;;;;3.17;2.47;;;;;;;5.45;73.82;98540.00;5108104;28;20048;-71
2023/01/10 04:57:55;;;;;;;3.42;2.63;;;;;;;5.41;74.00;98540.22;5107431;28;20047;-72
2023/01/10 05:00:24;;;;;;;4.03;2.60;;;;;;;5.42;74.00;98544.53;5107346;28;20046;-72
2023/01/10 05:02:55;;;;;;;3.00;2.30;;;;;;;5.40;74.42;98549.00;5108171;28;20040;-72
2023/01/10 05:05:24;;;;;;;3.38;2.40;;;;;;;5.39;74.31;98561.31;5107333;28;20280;-72
2023/01/10 05:07:51;;;;;;;5.10;2.70;;;;;;;5.39;74.44;98560.44;5107267;28;20043;-72
2023/01/10 05:10:18;;;;;;;3.38;2.30;;;;;;;5.42;74.43;98561.16;5107824;28;20110;-71
2023/01/10 05:12:45;;;;;;;3.38;2.58;;;;;;;5.41;74.36;98556.81;5090531;28;20036;-71
2023/01/10 05:15:13;;;;;;;2.72;2.15;;;;;;;5.41;74.27;98569.97;5090378;28;20052;-71
2023/01/10 05:17:41;;;;;;;3.72;2.60;;;;;;;5.42;74.26;98578.69;5107803;28;20048;-71
2023/01/10 05:20:09;;;;;;;3.35;2.40;;;;;;;5.40;74.36;98565.63;5107872;28;20054;-72
2023/01/10 05:22:36;;;;;;;5.25;2.97;;;;;;;5.40;74.43;98576.16;5107271;28;20078;-71
2023/01/10 05:25:03;;;;;;;4.57;2.60;;;;;;;5.16;74.42;98529.13;5107794;28;20047;-71
2023/01/10 05:27:30;;;;;;;3.08;2.72;;;;;;;5.39;74.34;98584.94;5106817;28;20058;-72
2023/01/10 05:29:57;;;;;;;2.83;2.33;;;;;;;5.40;74.34;98580.53;5106579;28;20047;-72
2023/01/10 05:32:28;;;;;;;3.60;2.65;;;;;;;5.40;74.43;98586.66;5090100;28;20042;-72
2023/01/10 05:34:58;;;;;;;2.83;2.42;;;;;;;4.74;74.25;98483.75;5107378;28;20064;-72
2023/01/10 05:37:25;;;;;;;3.45;2.58;;;;;;;5.29;74.38;98578.41;5106601;28;20031;-71
2023/01/10 05:39:52;;;;;;;3.75;2.40;;;;;;;5.39;74.40;98597.25;5107569;28;20300;-72
2023/01/10 05:42:19;;;;;;;3.08;2.38;;;;;;;5.39;74.38;98592.84;5107477;28;20055;-71
2023/01/10 05:44:46;;;;;;;3.13;2.70;;;;;;;4.68;74.43;98483.16;5107954;28;20038;-71
2023/01/10 05:47:13;;;;;;;3.75;2.83;;;;;;;5.38;74.24;98598.16;5106566;28;20378;-71
2023/01/10 05:49:40;;;;;;;4.03;2.72;;;;;;;5.39;74.48;98599.88;5107304;28;20287;-72
2023/01/10 05:52:08;;;;;;;3.95;2.95;;;;;;;5.39;74.30;98608.59;5106586;28;20058;-72
2023/01/10 05:54:35;;;;;;;5.63;3.05;;;;;;;5.29;74.23;98588.06;5107127;28;20040;-72
2023/01/10 05:57:02;;;;;;;3.47;2.63;;;;;;;5.39;74.27;98616.47;5106549;28;20040;-72
2023/01/10 05:59:28;;;;;;;3.22;2.65;;;;;;;5.37;74.35;98626.22;5106469;28;20046;-72
2023/01/10 06:01:55;;;;;;;2.92;2.30;;;;;;;5.19;74.31;98589.41;5106466;28;20042;-72
2023/01/10 06:04:23;;;;;;;3.92;2.50;;;;;;;5.29;74.22;98609.09;5106156;28;20102;-72
2023/01/10 06:06:50;;;;;;;3.25;2.38;;;;;;;5.23;74.32;98596.22;5107262;28;20046;-71
2023/01/10 06:09:18;;;;;;;3.00;2.55;;;;;;;5.40;74.33;98639.22;5105983;28;20032;-71
2023/01/10 06:11:45;;;;;;;3.05;2.45;;;;;;;5.17;74.43;98599.13;5105890;28;20040;-71
2023/01/10 06:14:11;;;;;;;3.72;2.50;;;;;;;4.82;74.39;98544.63;5106775;28;20106;-72
2023/01/10 06:16:40;;;;;;;3.00;2.45;;;;;;;5.39;74.50;98642.75;5105782;28;20066;-72
2023/01/10 06:19:09;;;;;;;3.40;2.70;;;;;;;5.38;74.62;98662.06;5089212;28;20050;-72
2023/01/10 06:21:36;;;;;;;3.38;2.50;;;;;;;4.81;74.45;98576.19;5106472;28;20333;-72
2023/01/10 06:24:03;;;;;;;3.13;2.45;;;;;;;5.35;74.63;98666.63;5106706;28;20040;-72
2023/01/10 06:26:31;;;;;;;5.45;2.72;;;;;;;5.35;74.75;98685.00;5105668;28;20044;-72
2023/01/10 06:28:58;;;;;;;3.10;2.47;;;;;;;5.32;74.77;98680.75;5105748;28;20298;-72
2023/01/10 06:31:26;;;;;;;3.83;2.80;;;;;;;5.36;75.09;98703.34;5106735;28;20032;-72
2023/01/10 06:33:53;;;;;;;6.68;2.90;;;;;;;5.33;74.97;98692.97;5106899;28;20047;-71
2023/01/10 06:36:20;;;;;;;4.38;2.80;;;;;;;5.33;75.09;98700.84;5105560;28;20085;-72
2023/01/10 06:38:47;;;;;;;4.13;2.80;;;;;;;5.33;75.07;98707.88;5105445;28;20043;-71
2023/01/10 06:41:13;;;;;;;4.00;3.30;;;;;;;5.32;75.14;98709.66;5088602;28;20188;-71
2023/01/10 06:43:44;;;;;;;3.55;2.88;;;;;;;5.31;75.36;98721.09;5106110;28;20056;-71
2023/01/10 06:46:12;;;;;;;3.97;3.35;;;;;;;4.79;75.15;98647.16;5106407;28;20036;-71
2023/01/10 06:48:39;;;;;;;4.43;3.22;;;;;;;5.32;75.29;98728.03;5105074;28;20085;-71
2023/01/10 06:51:06;;;;;;;4.68;3.20;;;;;;;5.33;75.38;98728.91;5088642;28;20066;-71
2023/01/10 06:53:33;;;;;;;8.90;3.08;;;;;;;5.34;75.27;98736.72;5106255;28;20050;-72
2023/01/10 06:56:01;;;;;;;4.28;3.40;;;;;;;4.60;75.22;98629.63;5105860;28;20111;-71
2023/01/10 06:58:28;;;;;;;4.95;3.53;;;;;;;5.30;75.24;98737.75;5106037;28;20054;-72
2023/01/10 07:00:59;;;;;;;4.65;3.05;;;;;;;5.32;75.30;98751.69;5105623;28;20046;-72
2023/01/10 07:03:26;;;;;;;3.92;2.85;;;;;;;5.31;75.21;98752.59;5105586;28;20046;-72
2023/01/10 07:05:53;;;;;;;4.65;2.90;;;;;;;5.32;75.02;98766.59;5105431;28;20036;-71
2023/01/10 07:08:19;;;;;;;3.60;2.90;;;;;;;5.34;75.02;98767.38;5106010;28;20040;-71
2023/01/10 07:10:46;;;;;;;3.40;2.88;;;;;;;5.07;74.87;98733.50;5106301;28;20054;-72
2023/01/10 07:13:13;;;;;;;5.30;3.13;;;;;;;5.32;74.77;98777.97;5104727;28;20334;-72
2023/01/10 07:15:40;;;;;;;4.47;3.15;;;;;;;5.33;74.81;98778.81;5104840;28;20036;-71
2023/01/10 07:18:08;;;;;;;5.47;2.70;;;;;;;5.18;74.68;98764.56;5106045;28;20036;-71
2023/01/10 07:20:35;;;;;;;3.58;2.85;;;;;;;5.31;74.68;98791.16;5106262;28;20059;-71
2023/01/10 07:23:02;;;;;;;4.25;3.42;;;;;;;5.07;74.55;98751.03;5104724;28;20040;-71
2023/01/10 07:25:29;;;;;;;5.30;3.80;;;;;;;5.32;74.61;98799.00;5104688;28;20032;-72
2023/01/10 07:27:56;;;;;;;5.75;4.45;;;;;;;5.34;74.69;98798.91;5106169;28;20287;-71
2023/01/10 07:30:24;;;;;;;5.93;3.55;;;;;;;5.35;74.61;98796.22;5105492;28;20036;-71
2023/01/10 07:32:55;;;;;;;4.18;3.33;;;;;;;5.36;74.38;98803.19;5104659;28;20031;-71
2023/01/10 07:35:24;;;;;;;3.80;3.20;;;;;;;5.36;74.32;98791.81;5104600;28;20062;-71
2023/01/10 07:37:50;;;;;;;5.00;3.67;;;;;;;5.38;74.29;98811.00;5105500;28;20047;-71
2023/01/10 07:40:18;;;;;;;4.50;3.35;;;;;;;5.38;74.29;98809.25;5105540;28;20060;-71
2023/01/10 07:42:45;;;;;;;5.07;3.35;;;;;;;5.13;74.14;98780.53;5105869;28;20052;-71
2023/01/10 07:45:12;;;;;;;3.72;3.08;;;;;;;5.38;74.17;98811.88;5105398;28;20046;-72
2023/01/10 07:47:39;;;;;;;4.03;3.38;;;;;;;5.38;74.16;98811.88;5105465;28;20031;-72
2023/01/10 07:50:07;;;;;;;5.93;3.00;;;;;;;5.40;74.09;98822.31;5104240;28;20052;-72
2023/01/10 07:52:37;;;;;;;5.07;3.20;;;;;;;5.41;74.04;98829.28;5104456;28;20047;-72
2023/01/10 07:55:04;;;;;;;4.00;3.10;;;;;;;5.41;74.17;98831.91;5105113;28;20032;-71
2023/01/10 07:57:31;;;;;;;3.85;3.25;;;;;;;5.41;74.21;98838.00;5104654;28;20054;-71
2023/01/10 07:59:58;;;;;;;4.75;3.50;;;;;;;5.28;74.05;98828.94;5104510;28;20208;-70
2023/01/10 08:02:25;;;;;;;3.65;2.80;;;;;;;5.44;74.06;98855.44;5105421;28;20101;-71
2023/01/10 08:04:51;;;;;;;4.07;3.55;;;;;;;5.42;74.23;98865.16;5104317;28;20040;-71
2023/01/10 08:07:18;;;;;;;4.07;2.85;;;;;;;5.42;74.11;98867.78;5105234;28;20115;-71
2023/01/10 08:09:47;;;;;;;3.63;2.75;;;;;;;5.43;74.09;98872.97;5105524;28;20051;-71
2023/01/10 08:12:13;;;;;;;3.85;2.92;;;;;;;5.45;74.21;98873.75;5105872;28;20070;-71
2023/01/10 08:14:40;;;;;;;4.47;3.33;;;;;;;5.45;74.02;98879.00;5108466;28;20125;-71
2023/01/10 08:17:08;;;;;;;4.40;3.35;;;;;;;5.47;74.23;98885.97;5108220;28;20042;-71
2023/01/10 08:19:35;;;;;;;7.93;3.90;;;;;;;5.48;74.18;98896.44;5109521;28;20180;-71
2023/01/10 08:22:03;;;;;;;4.80;3.60;;;;;;;5.50;74.19;98904.25;5108351;28;20036;-71
2023/01/10 08:24:29;;;;;;;4.13;3.70;;;;;;;5.29;74.22;98885.81;5109087;28;20310;-71
2023/01/10 08:27:00;;;;;;;5.75;3.80;;;;;;;5.00;74.28;98831.84;5125334;28;20056;-71
2023/01/10 08:29:27;;;;;;;4.57;3.45;;;;;;;4.99;74.28;98831.91;5108077;28;20085;-71
2023/01/10 08:31:54;;;;;;;5.38;3.58;;;;;;;5.57;74.14;98917.06;5108695;28;20046;-71
2023/01/10 08:34:21;;;;;;;4.88;3.58;;;;;;;5.57;74.11;98919.69;5107777;28;20288;-71
2023/01/10 08:36:50;;;;;;;3.88;2.97;;;;;;;5.58;74.04;98929.31;5108061;28;20044;-71
2023/01/10 08:39:17;;;;;;;4.70;3.42;;;;;;;5.58;73.79;98933.69;5107914;28;20044;-72
2023/01/10 08:41:44;;;;;;;4.55;3.20;;;;;;;5.57;73.86;98940.72;5108528;28;20079;-71
2023/01/10 08:44:14;;;;;;;5.55;4.75;;;;;;;5.58;73.84;98947.69;5108698;28;20054;-71
2023/01/10 08:46:41;;;;;;;5.32;3.42;;;;;;;5.59;73.86;98959.06;5108808;28;20040;-71
2023/01/10 08:49:08;;;;;;;4.90;3.60;;;;;;;5.59;73.45;98957.28;5108994;28;20059;-72
2023/01/10 08:51:35;;;;;;;3.80;3.38;;;;;;;5.63;73.28;98968.53;5108924;28;20039;-72
2023/01/10 08:54:03;;;;;;;4.05;3.10;;;;;;;5.64;73.17;98965.00;5107410;28;20103;-72
2023/01/10 08:56:30;;;;;;;4.10;3.58;;;;;;;5.40;72.94;98923.03;5108197;28;20044;-71
2023/01/10 08:58:57;;;;;;;4.30;3.08;;;;;;;5.66;72.91;98978.94;5108693;28;20044;-71
2023/01/10 09:01:27;;;;;;;4.78;2.97;;;;;;;5.66;72.83;98979.78;5108402;28;20103;-71
2023/01/10 09:03:53;;;;;;;3.95;3.20;;;;;;;5.67;72.82;98989.38;5074180;28;20051;-71
2023/01/10 09:06:20;;;;;;;4.10;3.22;;;;;;;5.69;72.74;98994.59;5108146;28;20093;-72
2023/01/10 09:08:47;;;;;;;5.13;3.58;;;;;;;5.69;72.75;98991.94;5108012;28;20046;-71
2023/01/10 09:11:14;;;;;;;5.32;3.60;;;;;;;5.71;72.58;99005.88;5107066;28;20322;-72
2023/01/10 09:13:41;;;;;;;5.13;3.50;;;;;;;5.71;72.55;99008.53;5106934;28;20036;-71
2023/01/10 09:16:08;;;;;;;4.28;3.78;;;;;;;5.68;72.46;98993.72;5108153;28;20043;-72
2023/01/10 09:18:36;;;;;;;3.92;3.50;;;;;;;5.73;72.24;99014.56;5108184;28;20299;-71
2023/01/10 09:21:03;;;;;;;4.18;3.40;;;;;;;5.74;72.20;99005.75;5107761;28;20035;-72
2023/01/10 09:23:30;;;;;;;6.18;3.95;;;;;;;5.77;72.06;99011.75;5106581;28;20295;-71
2023/01/10 09:25:57;;;;;;;4.22;3.40;;;;;;;5.76;71.98;99010.03;5108010;28;20036;-72
2023/01/10 09:28:24;;;;;;;4.80;3.75;;;;;;;5.78;71.89;99015.25;5106782;28;20108;-71
2023/01/10 09:30:52;;;;;;;4.55;3.45;;;;;;;5.81;71.80;99019.53;5089758;28;20064;-71
2023/01/10 09:33:19;;;;;;;4.47;3.30;;;;;;;5.07;71.28;98896.34;5107911;28;20074;-71
2023/01/10 09:35:48;;;;;;;5.03;3.25;;;;;;;5.78;71.73;99025.75;5090448;28;20109;-71
2023/01/10 09:38:17;;;;;;;6.35;3.80;;;;;;;5.86;71.64;99033.34;5106684;28;20177;-71
2023/01/10 09:40:58;;;;;;;4.10;3.30;;;;;;;5.86;71.13;99039.44;5107377;28;20124;-71
2023/01/10 09:43:34;;;;;;;4.43;3.60;;;;;;;5.87;71.06;99035.03;5107701;28;20044;-71
2023/01/10 09:46:08;;;;;;;7.00;3.90;;;;;;;5.89;71.19;99055.09;5107997;28;20112;-71
2023/01/10 09:48:43;;;;;;;4.20;3.33;;;;;;;5.92;71.19;99046.22;5089863;28;20054;-71
2023/01/10 09:51:23;;;;;;;6.47;3.70;;;;;;;5.91;70.71;99045.38;5107301;28;20099;-71
2023/01/10 09:53:53;;;;;;;5.05;3.58;;;;;;;5.92;70.97;99051.50;5107537;28;20059;-71
2023/01/10 09:56:21;;;;;;;5.90;4.07;;;;;;;5.40;71.09;98964.22;5106995;28;20299;-71
2023/01/10 09:58:48;;;;;;;6.40;4.07;;;;;;;5.72;70.93;99015.50;5107195;28;20096;-70
2023/01/10 10:01:19;;;;;;;5.45;3.83;;;;;;;5.74;70.61;99016.28;5090071;28;20196;-71
2023/01/10 10:03:52;;;;;;;5.20;3.55;;;;;;;5.95;70.51;99054.00;5107152;28;20347;-71
2023/01/10 10:06:23;;;;;;;5.32;4.00;;;;;;;5.96;70.34;99048.69;5107191;28;20108;-72
2023/01/10 10:08:52;;;;;;;7.75;4.18;;;;;;;5.99;70.65;99056.44;5107211;28;20310;-71
2023/01/10 10:11:38;;;;;;;4.88;3.95;;;;;;;5.48;69.97;98985.78;5107300;28;20055;-72
2023/01/10 10:14:11;;;;;;;5.00;3.05;;;;;;;6.02;70.63;99072.09;5107210;28;20101;-72
2023/01/10 10:17:03;;;;;;;6.18;4.68;;;;;;;6.04;69.64;99062.38;5106092;28;20054;-71
2023/01/10 10:19:40;;;;;;;4.40;3.60;;;;;;;5.87;70.17;99038.53;5105989;28;20035;-72
2023/01/10 10:22:16;;;;;;;4.93;3.70;;;;;;;5.83;69.73;99038.72;5090320;28;20132;-72
2023/01/10 10:24:57;;;;;;;5.43;3.75;;;;;;;6.09;69.90;99077.97;5107323;28;20044;-72
2023/01/10 10:27:35;;;;;;;7.05;3.70;;;;;;;6.11;70.00;99070.84;5090723;28;20058;-72
2023/01/10 10:30:26;;;;;;;4.05;3.40;;;;;;;5.90;69.29;99048.94;5106137;28;20253;-71
2023/01/10 10:33:07;;;;;;;5.40;3.53;;;;;;;6.13;69.22;99076.06;5106056;28;20337;-72
2023/01/10 10:35:38;;;;;;;4.65;4.00;;;;;;;6.17;69.82;99082.91;5088231;28;20040;-72
2023/01/10 10:38:13;;;;;;;5.22;3.50;;;;;;;6.18;69.39;99068.81;5105990;28;20050;-72
2023/01/10 10:40:44;;;;;;;4.70;3.53;;;;;;;6.21;69.52;99082.72;5106820;28;20066;-72
2023/01/10 10:43:20;;;;;;;5.38;3.55;;;;;;;5.94;69.25;99039.13;5106038;28;20307;-71
2023/01/10 10:45:50;;;;;;;4.35;3.50;;;;;;;6.28;69.53;99080.69;5106258;28;20077;-71
2023/01/10 10:48:23;;;;;;;5.63;3.50;;;;;;;6.13;68.99;99058.50;5106822;28;20103;-72
2023/01/10 10:51:00;;;;;;;5.57;4.47;;;;;;;6.16;69.00;99061.00;5106571;28;20115;-71
2023/01/10 10:53:29;;;;;;;4.20;3.58;;;;;;;6.33;69.21;99078.72;5106790;28;20310;-71
2023/01/10 10:55:57;;;;;;;5.53;3.88;;;;;;;6.36;69.17;99092.59;5105773;28;20110;-72
2023/01/10 10:58:24;;;;;;;5.00;3.30;;;;;;;6.40;68.96;99082.78;5105593;28;20036;-72
2023/01/10 11:00:53;;;;;;;5.03;3.70;;;;;;;6.25;68.78;99055.34;5105453;28;20051;-72
2023/01/10 11:03:32;;;;;;;5.07;3.97;;;;;;;6.43;67.71;99085.28;5105673;28;20059;-72
2023/01/10 11:06:00;;;;;;;6.63;3.92;;;;;;;6.47;68.38;99086.03;5106305;28;20036;-71
2023/01/10 11:08:40;;;;;;;4.88;3.53;;;;;;;6.50;67.17;99091.16;5106263;28;20067;-71
2023/01/10 11:11:17;;;;;;;4.55;3.15;;;;;;;6.37;67.97;99064.50;5105822;28;20195;-71
2023/01/10 11:13:47;;;;;;;5.68;3.85;;;;;;;6.33;68.07;99050.63;5106878;28;20222;-72
2023/01/10 11:16:26;;;;;;;4.65;3.65;;;;;;;6.65;66.98;99091.34;5104897;28;20056;-72
2023/01/10 11:19:17;;;;;;;6.05;3.72;;;;;;;6.68;66.52;99106.16;5105231;28;20040;-72
2023/01/10 11:21:49;;;;;;;4.95;3.83;;;;;;;6.70;67.18;99099.06;5088322;28;20113;-71
2023/01/10 11:24:38;;;;;;;6.97;4.60;;;;;;;6.78;66.05;99098.72;5106499;28;20036;-71
2023/01/10 11:27:15;;;;;;;4.95;3.80;;;;;;;6.65;66.34;99077.34;5105978;28;20058;-71
2023/01/10 11:29:45;;;;;;;5.55;4.13;;;;;;;6.84;67.14;99112.50;5105969;28;20051;-72
2023/01/10 11:32:14;;;;;;;6.30;3.60;;;;;;;6.88;66.92;99105.31;5105812;28;20050;-71
2023/01/10 11:34:47;;;;;;;4.78;3.42;;;;;;;6.90;66.88;99100.84;5104506;28;20063;-71
2023/01/10 11:37:27;;;;;;;7.43;4.43;;;;;;;6.91;65.46;99107.81;5105597;28;20318;-71
2023/01/10 11:40:17;;;;;;;7.60;5.05;;;;;;;6.94;65.01;99098.00;5105096;28;20036;-71
2023/01/10 11:42:44;;;;;;;4.45;3.45;;;;;;;6.98;66.34;99111.91;5104489;28;20291;-71
2023/01/10 11:45:28;;;;;;;6.90;4.03;;;;;;;6.99;64.66;99103.06;5104818;28;20036;-72
2023/01/10 11:47:58;;;;;;;4.53;3.28;;;;;;;6.85;66.07;99072.06;5108814;28;20052;-72
2023/01/10 11:50:29;;;;;;;6.57;4.20;;;;;;;7.05;65.59;99103.66;5109010;28;20039;-71
2023/01/10 11:52:56;;;;;;;7.22;4.05;;;;;;;7.12;65.80;99113.91;5108789;28;20039;-72
2023/01/10 11:55:27;;;;;;;5.38;3.65;;;;;;;6.81;65.06;99046.78;5109091;28;20358;-72
2023/01/10 11:58:01;;;;;;;4.47;3.35;;;;;;;7.21;64.73;99114.34;5109457;28;20036;-71
2023/01/10 12:00:35;;;;;;;4.38;3.40;;;;;;;6.56;64.44;98990.84;5092025;28;20055;-71
2023/01/10 12:03:02;;;;;;;4.93;3.20;;;;;;;7.32;65.14;99091.00;5108626;28;20039;-71
2023/01/10 12:05:29;;;;;;;3.70;2.80;;;;;;;7.38;64.98;99097.81;5108325;28;20188;-72
2023/01/10 12:07:58;;;;;;;4.80;3.40;;;;;;;7.43;64.45;99108.13;5108213;28;20042;-71
2023/01/10 12:10:29;;;;;;;4.53;3.38;;;;;;;7.13;63.63;99045.34;5108737;28;20171;-71